Time;durP1;ratioP1;P1;durP2;ratioP2;P2;SDS_P1;SDS_P2;PMS_P1;PMS_P2;Temp;Humidity;BMP_temperature;BMP_pressure;BME280_temperature;BME280_humidity;BME280_pressure;Samples;Min_cycle;Max_cycle;Signal;HPM_P1;HPM_P2
2023/01/11 00:00:18;;;;;;;51.67;48.23;;;8.80;99.90;;;;;;5012207;28;20056;-76
2023/01/11 00:02:44;;;;;;;70.97;66.60;;;8.30;99.90;;;;;;5012664;28;20042;-75
2023/01/11 00:05:11;;;;;;;36.47;33.47;;;8.90;99.90;;;;;;5012548;28;20049;-74
2023/01/11 00:07:37;;;;;;;30.70;27.73;;;8.90;99.90;;;;;;5012500;28;20050;-75
2023/01/11 00:10:04;;;;;;;52.80;48.97;;;8.30;99.90;;;;;;5011644;28;20040;-75
2023/01/11 00:12:30;;;;;;;31.10;28.47;;;8.40;99.90;;;;;;4994808;28;20041;-76
2023/01/11 00:14:55;;;;;;;26.27;23.77;;;8.40;99.90;;;;;;5012559;28;20269;-75
2023/01/11 00:17:21;;;;;;;44.83;41.67;;;8.50;99.90;;;;;;5011480;28;20050;-74
2023/01/11 00:19:47;;;;;;;64.60;60.70;;;8.50;99.90;;;;;;4994920;28;20041;-75
2023/01/11 00:22:13;;;;;;;36.10;33.47;;;8.50;99.90;;;;;;4993998;28;20037;-74
2023/01/11 00:24:38;;;;;;;35.07;32.33;;;9.00;99.90;;;;;;4994934;28;20077;-75
2023/01/11 00:27:04;;;;;;;29.87;27.37;;;8.80;99.90;;;;;;5011791;28;20045;-76
2023/01/11 00:29:30;;;;;;;37.30;34.50;;;8.70;99.90;;;;;;5011984;28;20125;-75
2023/01/11 00:31:56;;;;;;;35.33;32.60;;;8.50;99.90;;;;;;5011629;28;20046;-74
2023/01/11 00:34:21;;;;;;;36.57;33.73;;;8.80;99.90;;;;;;5011813;28;20037;-77
2023/01/11 00:36:47;;;;;;;46.07;42.87;;;9.00;99.90;;;;;;5011522;28;20049;-75
2023/01/11 00:39:13;;;;;;;209.27;194.83;;;9.10;99.90;;;;;;5011849;28;20069;-74
2023/01/11 00:50:01;;;;;;;38.13;35.20;;;9.30;99.90;;;;;;5011734;28;20460;-77
2023/01/11 00:52:26;;;;;;;42.80;39.73;;;8.50;99.90;;;;;;4993750;28;20040;-75
2023/01/11 00:54:52;;;;;;;46.97;43.70;;;8.70;99.90;;;;;;5011303;28;20145;-80
2023/01/11 00:57:18;;;;;;;46.87;43.43;;;9.50;99.90;;;;;;5010207;28;20049;-75
2023/01/11 00:59:44;;;;;;;47.20;44.00;;;9.50;99.90;;;;;;5011289;28;20049;-77
2023/01/11 01:02:11;;;;;;;77.93;73.50;;;8.90;99.90;;;;;;5011077;28;20050;-75
2023/01/11 01:04:37;;;;;;;51.33;47.93;;;8.80;99.90;;;;;;5010995;28;20403;-77
2023/01/11 01:07:04;;;;;;;55.87;52.37;;;9.10;99.90;;;;;;5010717;28;20046;-74
2023/01/11 01:09:30;;;;;;;41.97;39.00;;;8.90;99.90;;;;;;4993580;28;20157;-77
2023/01/11 01:11:56;;;;;;;39.63;36.93;;;8.60;99.90;;;;;;5010919;28;20045;-75
2023/01/11 01:14:25;;;;;;;51.13;47.93;;;8.80;99.90;;;;;;4993949;28;20042;-76
2023/01/11 01:16:52;;;;;;;44.27;41.57;;;8.80;99.90;;;;;;5010628;28;20099;-78
2023/01/11 01:19:20;;;;;;;30.30;28.30;;;9.60;99.90;;;;;;4993783;28;20168;-76
2023/01/11 01:21:45;;;;;;;37.57;35.17;;;8.80;99.90;;;;;;5010486;28;20042;-76
2023/01/11 01:24:11;;;;;;;37.93;35.30;;;9.00;99.90;;;;;;4977603;28;20061;-79
2023/01/11 01:26:37;;;;;;;31.17;28.97;;;9.10;99.90;;;;;;4991412;28;20054;-75
2023/01/11 01:29:03;;;;;;;37.63;35.30;;;9.70;99.90;;;;;;4991444;28;20042;-83
2023/01/11 01:31:28;;;;;;;35.50;33.17;;;9.10;99.90;;;;;;4990792;28;20162;-77
2023/01/11 01:33:54;;;;;;;26.73;24.87;;;9.30;99.90;;;;;;4991025;28;20042;-75
2023/01/11 01:36:20;;;;;;;100.70;95.30;;;9.70;99.90;;;;;;5003984;28;20045;-75
2023/01/11 01:38:46;;;;;;;36.27;34.13;;;9.00;99.90;;;;;;5010891;28;20386;-75
2023/01/11 01:41:12;;;;;;;34.57;32.53;;;9.80;99.90;;;;;;5010139;28;20422;-76
2023/01/11 01:43:58;;;;;;;35.90;33.70;;;9.80;99.90;;;;;;5010852;28;20060;-76
2023/01/11 01:46:29;;;;;;;36.87;34.57;;;9.40;99.90;;;;;;4992397;28;20128;-78
2023/01/11 01:49:16;;;;;;;37.77;35.40;;;9.20;99.90;;;;;;5011315;28;20227;-76
2023/01/11 01:51:45;;;;;;;41.23;38.90;;;9.80;99.90;;;;;;5009714;28;20343;-75
2023/01/11 01:54:17;;;;;;;42.53;40.13;;;9.20;99.90;;;;;;4992874;28;20053;-78
2023/01/11 01:56:51;;;;;;;48.97;46.27;;;9.30;99.90;;;;;;4992389;28;20124;-75
2023/01/11 01:59:18;;;;;;;34.73;32.77;;;9.60;99.90;;;;;;4993446;28;20045;-76
2023/01/11 02:01:48;;;;;;;38.93;36.67;;;9.80;99.90;;;;;;4992223;28;20049;-76
2023/01/11 02:04:40;;;;;;;42.33;39.83;;;9.50;99.90;;;;;;5010728;28;20042;-76
2023/01/11 02:07:16;;;;;;;55.93;52.83;;;9.30;99.90;;;;;;4976346;28;20129;-76
2023/01/11 02:09:56;;;;;;;28.47;26.60;;;9.20;99.90;;;;;;5009701;28;20039;-75
2023/01/11 02:12:26;;;;;;;43.77;41.20;;;9.40;99.90;;;;;;5010039;28;20439;-76
2023/01/11 02:14:53;;;;;;;37.77;35.67;;;10.10;99.90;;;;;;5009811;28;20395;-76
2023/01/11 02:17:20;;;;;;;32.83;30.77;;;10.10;99.90;;;;;;5009788;28;20056;-76
2023/01/11 02:20:07;;;;;;;31.47;29.57;;;10.00;99.90;;;;;;5009883;28;20409;-78
2023/01/11 02:23:07;;;;;;;30.83;28.80;;;9.20;99.90;;;;;;5010183;28;20084;-76
2023/01/11 02:25:43;;;;;;;26.43;24.63;;;9.20;99.90;;;;;;5001501;28;20248;-76
2023/01/11 02:28:51;;;;;;;29.93;28.13;;;9.30;99.90;;;;;;5009995;28;20120;-77
2023/01/11 02:31:50;;;;;;;25.87;24.07;;;9.70;99.90;;;;;;5009326;28;20049;-76
2023/01/11 02:34:51;;;;;;;31.07;29.17;;;9.30;99.90;;;;;;5010112;28;20042;-75
2023/01/11 02:37:50;;;;;;;28.70;26.80;;;9.90;99.90;;;;;;4989731;28;20050;-75
2023/01/11 02:40:28;;;;;;;22.77;21.20;;;10.20;99.90;;;;;;4972992;28;20038;-75
2023/01/11 02:45:50;;;;;;;33.77;31.90;;;10.30;99.90;;;;;;4989923;28;20054;-78
2023/01/11 02:48:30;;;;;;;24.83;23.13;;;10.10;99.90;;;;;;4989935;28;20514;-77
2023/01/11 02:51:11;;;;;;;32.07;30.30;;;9.40;99.90;;;;;;5009503;28;20053;-75
2023/01/11 02:53:53;;;;;;;23.33;21.90;;;10.20;99.90;;;;;;5009766;28;20121;-79
2023/01/11 02:56:23;;;;;;;24.83;23.33;;;10.20;99.90;;;;;;5009776;28;20058;-76
2023/01/11 02:58:51;;;;;;;41.03;38.83;;;9.50;99.90;;;;;;4979097;28;20085;-75
2023/01/11 03:01:21;;;;;;;27.70;26.10;;;10.20;99.90;;;;;;4988875;28;20379;-78
2023/01/11 03:03:47;;;;;;;26.07;24.47;;;10.10;99.90;;;;;;5007053;28;20117;-76
2023/01/11 03:06:20;;;;;;;47.80;45.17;;;9.50;99.90;;;;;;5005674;28;20495;-80
2023/01/11 03:09:21;;;;;;;31.97;30.10;;;9.70;99.90;;;;;;4991094;28;20049;-79
2023/01/11 03:14:42;;;;;;;49.83;47.10;;;9.80;99.90;;;;;;5005304;28;20823;-78
2023/01/11 03:17:34;;;;;;;33.20;31.37;;;9.50;99.90;;;;;;5009143;28;20506;-75
2023/01/11 03:20:08;;;;;;;;;;;10.00;99.90;;;;;;4990286;28;20038;-77
2023/01/11 03:22:58;;;;;;;25.67;24.07;;;10.50;99.90;;;;;;4992883;28;19921;-76
2023/01/11 03:25:55;;;;;;;32.03;30.23;;;9.70;99.90;;;;;;5012851;28;20099;-75
2023/01/11 03:28:29;;;;;;;25.97;24.30;;;9.80;99.90;;;;;;5013264;28;20033;-75
2023/01/11 03:31:05;;;;;;;30.00;27.47;;;10.10;99.90;;;;;;5012809;28;20042;-75
2023/01/11 03:33:35;;;;;;;45.13;41.87;;;9.80;99.90;;;;;;5012635;28;20033;-74
2023/01/11 03:36:33;;;;;;;32.03;29.90;;;10.30;99.90;;;;;;5012663;28;20045;-76
2023/01/11 03:39:08;;;;;;;38.33;35.53;;;10.50;99.90;;;;;;5012487;28;20049;-77
2023/01/11 03:41:37;;;;;;;36.43;33.23;;;9.80;99.90;;;;;;5012509;28;20046;-75
2023/01/11 03:44:06;;;;;;;29.03;26.30;;;10.30;99.90;;;;;;5013208;28;20057;-77
2023/01/11 03:47:02;;;;;;;25.67;22.80;;;10.50;99.90;;;;;;4995302;28;20050;-75
2023/01/11 03:49:50;;;;;;;28.83;25.90;;;10.50;99.90;;;;;;5010458;28;20388;-81
2023/01/11 03:52:24;;;;;;;30.00;27.27;;;10.20;99.90;;;;;;5012687;28;20384;-74
2023/01/11 03:54:51;;;;;;;37.43;34.07;;;10.40;99.90;;;;;;4995054;28;20077;-79
2023/01/11 03:57:24;;;;;;;28.77;24.77;;;10.40;99.90;;;;;;4994636;28;20045;-76
2023/01/11 03:59:50;;;;;;;36.63;32.77;;;10.20;99.90;;;;;;5012985;28;20155;-77
2023/01/11 04:02:21;;;;;;;35.77;31.97;;;10.30;99.90;;;;;;5012438;28;20128;-77
2023/01/11 04:04:47;;;;;;;30.88;22.05;;;10.50;99.90;;;;;;5011967;28;20115;-75
2023/01/11 04:07:14;;;;;;;38.77;34.90;;;10.00;99.90;;;;;;4994623;28;20480;-75
2023/01/11 04:09:39;;;;;;;42.37;37.93;;;10.10;99.90;;;;;;5011676;28;20037;-75
2023/01/11 04:12:05;;;;;;;44.93;40.80;;;10.00;99.90;;;;;;5012558;28;20041;-75
2023/01/11 04:14:31;;;;;;;36.53;32.40;;;10.00;99.90;;;;;;5012572;28;20057;-75
2023/01/11 04:16:57;;;;;;;40.33;33.40;;;10.20;99.90;;;;;;5011921;28;20050;-76
2023/01/11 04:19:23;;;;;;;35.50;31.67;;;10.30;99.90;;;;;;5012297;28;20070;-78
2023/01/11 04:21:48;;;;;;;46.20;41.43;;;10.00;99.90;;;;;;5011444;28;20049;-76
2023/01/11 04:24:14;;;;;;;31.20;26.57;;;9.70;99.90;;;;;;5012321;28;20484;-75
2023/01/11 04:26:40;;;;;;;57.63;53.73;;;9.80;99.90;;;;;;5011834;28;20107;-75
2023/01/11 04:29:05;;;;;;;23.43;19.70;;;9.70;99.90;;;;;;5011990;28;20042;-77
2023/01/11 04:31:31;;;;;;;19.07;15.53;;;9.70;99.90;;;;;;5011734;28;20069;-75
2023/01/11 04:33:57;;;;;;;18.63;16.07;;;9.50;99.90;;;;;;5012607;28;20125;-75
2023/01/11 04:36:25;;;;;;;20.93;18.87;;;9.20;99.90;;;;;;5010717;28;20665;-78
2023/01/11 04:38:51;;;;;;;25.17;22.67;;;9.20;99.90;;;;;;4994858;28;20399;-75
2023/01/11 04:44:00;;;;;;;27.20;24.73;;;9.00;99.90;;;;;;5011318;28;20103;-79
2023/01/11 04:46:26;;;;;;;16.30;10.63;;;9.20;99.90;;;;;;5010959;28;20085;-75
2023/01/11 04:48:52;;;;;;;19.50;14.73;;;9.20;99.90;;;;;;5011720;28;20037;-78
2023/01/11 04:51:18;;;;;;;40.30;36.40;;;9.00;99.90;;;;;;5010919;28;20046;-75
2023/01/11 04:53:46;;;;;;;23.67;19.87;;;9.10;99.90;;;;;;5011539;28;20050;-76
2023/01/11 04:56:12;;;;;;;26.87;24.37;;;9.00;99.90;;;;;;5011518;28;20495;-75
2023/01/11 04:58:38;;;;;;;26.23;20.40;;;9.30;99.90;;;;;;4997775;28;20100;-77
2023/01/11 05:01:11;;;;;;;25.13;20.77;;;8.90;99.90;;;;;;5002929;28;20050;-75
2023/01/11 05:03:37;;;;;;;23.17;14.03;;;9.30;99.90;;;;;;5008675;28;20120;-78
2023/01/11 05:06:03;;;;;;;26.63;18.60;;;9.40;99.90;;;;;;5007968;28;20117;-75
2023/01/11 05:08:29;;;;;;;33.67;30.07;;;9.40;99.90;;;;;;5010522;28;20442;-78
2023/01/11 05:10:58;;;;;;;20.40;15.63;;;9.40;99.90;;;;;;4992852;28;20046;-76
2023/01/11 05:13:42;;;;;;;34.53;30.90;;;9.30;99.90;;;;;;5010928;28;20111;-75
2023/01/11 05:16:18;;;;;;;24.07;13.67;;;9.50;99.90;;;;;;5011054;28;20046;-75
2023/01/11 05:18:47;;;;;;;25.70;14.30;;;9.30;99.90;;;;;;5011456;28;20077;-74
2023/01/11 05:21:14;;;;;;;40.37;36.27;;;9.30;99.90;;;;;;5010139;28;20436;-75
2023/01/11 05:23:41;;;;;;;24.63;18.50;;;9.40;99.90;;;;;;4993855;28;20045;-76
2023/01/11 05:26:18;;;;;;;20.53;16.57;;;9.10;99.90;;;;;;4992939;28;20137;-77
2023/01/11 05:28:45;;;;;;;25.60;14.63;;;9.10;99.90;;;;;;5003704;28;20495;-75
2023/01/11 05:31:11;;;;;;;33.87;30.83;;;9.10;99.90;;;;;;5009937;28;20574;-77
2023/01/11 05:33:37;;;;;;;22.13;15.00;;;9.20;99.90;;;;;;5009194;28;20041;-78
2023/01/11 05:36:10;;;;;;;27.00;18.50;;;9.20;99.90;;;;;;5010528;28;20041;-75
2023/01/11 05:38:36;;;;;;;32.83;23.10;;;9.20;99.90;;;;;;4993578;28;20045;-76
2023/01/11 05:41:04;;;;;;;33.80;15.87;;;9.20;99.90;;;;;;5009717;28;20104;-74
2023/01/11 05:43:31;;;;;;;30.13;14.80;;;9.20;99.90;;;;;;5010289;28;20049;-82
2023/01/11 05:45:57;;;;;;;35.40;22.57;;;9.20;99.90;;;;;;4992637;28;20049;-75
2023/01/11 05:48:23;;;;;;;39.80;27.33;;;9.30;99.90;;;;;;4993245;28;20048;-75
2023/01/11 05:50:53;;;;;;;38.23;24.87;;;9.20;99.90;;;;;;4978449;28;20426;-77
2023/01/11 05:53:21;;;;;;;38.30;19.27;;;9.30;99.90;;;;;;4992667;28;20503;-78
2023/01/11 05:55:57;;;;;;;33.47;17.03;;;9.30;99.90;;;;;;5008349;28;20490;-77
2023/01/11 05:58:25;;;;;;;34.10;20.53;;;9.20;99.90;;;;;;4989230;28;20060;-76
2023/01/11 06:00:52;;;;;;;39.97;30.57;;;9.10;99.90;;;;;;5009504;28;20034;-75
2023/01/11 06:03:19;;;;;;;46.77;39.90;;;9.00;99.90;;;;;;4992581;28;20085;-76
2023/01/11 06:05:45;;;;;;;32.67;16.27;;;9.10;99.90;;;;;;5010470;28;20041;-76
2023/01/11 06:08:11;;;;;;;33.27;18.23;;;9.00;99.90;;;;;;5010312;28;20077;-76
2023/01/11 06:10:36;;;;;;;37.60;19.10;;;9.00;99.90;;;;;;5010133;28;20152;-76
2023/01/11 06:15:46;;;;;;;35.03;29.63;;;8.80;99.90;;;;;;5009875;28;20057;-76
2023/01/11 06:18:12;;;;;;;54.73;49.77;;;8.80;99.90;;;;;;5009845;28;20046;-76
2023/01/11 06:20:38;;;;;;;50.23;45.67;;;8.80;99.90;;;;;;5009791;28;20042;-77
2023/01/11 06:23:03;;;;;;;35.77;14.80;;;8.70;99.90;;;;;;5009287;28;20077;-76
2023/01/11 06:25:29;;;;;;;37.37;20.23;;;8.70;99.90;;;;;;5010249;28;20122;-76
2023/01/11 06:27:56;;;;;;;36.37;18.47;;;8.70;99.90;;;;;;5009764;28;20037;-75
2023/01/11 06:30:24;;;;;;;42.87;22.33;;;8.70;99.90;;;;;;5010190;28;20065;-75
2023/01/11 06:32:51;;;;;;;32.60;16.83;;;8.80;99.90;;;;;;5009429;28;20517;-75
2023/01/11 06:35:17;;;;;;;38.27;29.23;;;8.80;99.90;;;;;;4991767;28;20041;-78
2023/01/11 06:37:43;;;;;;;33.30;16.97;;;8.90;99.90;;;;;;4992008;28;20041;-75
2023/01/11 06:40:09;;;;;;;34.77;22.50;;;8.90;99.90;;;;;;4992208;28;20034;-77
2023/01/11 06:42:35;;;;;;;27.83;15.40;;;8.80;99.90;;;;;;5009676;28;20052;-76
2023/01/11 06:45:01;;;;;;;33.23;22.60;;;8.90;99.90;;;;;;5010165;28;20038;-76
2023/01/11 06:47:26;;;;;;;43.47;19.63;;;8.90;99.90;;;;;;5009066;28;20192;-75
2023/01/11 06:49:52;;;;;;;44.87;16.53;;;8.90;99.90;;;;;;5009533;28;20045;-75
2023/01/11 06:52:17;;;;;;;30.47;16.30;;;8.90;99.90;;;;;;5009414;28;20439;-75
2023/01/11 06:54:43;;;;;;;45.20;20.60;;;8.90;99.90;;;;;;5010460;28;20050;-77
2023/01/11 06:57:09;;;;;;;43.07;24.70;;;8.90;99.90;;;;;;5013543;28;20052;-76
2023/01/11 06:59:35;;;;;;;56.53;51.00;;;8.80;99.90;;;;;;5013364;28;20060;-79
2023/01/11 07:02:00;;;;;;;53.83;48.87;;;8.80;99.90;;;;;;5012266;28;20041;-75
2023/01/11 07:04:26;;;;;;;34.10;16.97;;;8.70;99.90;;;;;;4963972;28;20050;-76
2023/01/11 07:06:53;;;;;;;39.93;35.93;;;8.70;99.90;;;;;;5013734;28;20046;-75
2023/01/11 07:09:19;;;;;;;30.27;17.73;;;8.60;99.90;;;;;;5013603;28;20404;-74
2023/01/11 07:11:45;;;;;;;88.37;82.37;;;8.70;99.90;;;;;;5013162;28;20041;-74
2023/01/11 07:14:13;;;;;;;27.37;20.77;;;8.50;99.90;;;;;;5013059;28;20038;-77
2023/01/11 07:16:39;;;;;;;20.93;18.93;;;8.50;99.90;;;;;;4995395;28;20100;-76
2023/01/11 07:19:06;;;;;;;54.80;50.70;;;8.50;99.90;;;;;;5012540;28;20519;-75
2023/01/11 07:21:31;;;;;;;25.13;18.53;;;8.50;99.90;;;;;;5009825;28;20384;-75
2023/01/11 07:23:57;;;;;;;17.13;9.37;;;8.40;99.90;;;;;;5011713;28;20046;-75
2023/01/11 07:26:25;;;;;;;19.57;11.20;;;8.40;99.90;;;;;;5009669;28;20414;-76
2023/01/11 07:28:50;;;;;;;20.47;9.60;;;8.40;99.90;;;;;;5012407;28;20061;-74
2023/01/11 07:31:16;;;;;;;19.77;14.53;;;8.40;99.90;;;;;;4993933;28;20105;-74
2023/01/11 07:33:42;;;;;;;12.77;8.57;;;8.40;99.90;;;;;;5012703;28;20042;-80
2023/01/11 07:36:08;;;;;;;13.63;7.60;;;8.40;99.90;;;;;;5011094;28;20054;-78
2023/01/11 07:38:33;;;;;;;15.77;8.03;;;8.30;99.90;;;;;;5010586;28;20037;-76
2023/01/11 07:40:59;;;;;;;16.83;9.93;;;8.30;99.90;;;;;;4994655;28;20044;-75
2023/01/11 07:43:25;;;;;;;18.67;8.93;;;8.30;99.90;;;;;;5012182;28;20042;-79
2023/01/11 07:45:51;;;;;;;14.70;9.90;;;8.20;99.90;;;;;;5012332;28;20039;-76
2023/01/11 07:48:23;;;;;;;19.33;10.03;;;8.30;99.90;;;;;;5011995;28;20372;-75
2023/01/11 07:50:49;;;;;;;;;;;8.30;99.90;;;;;;5013041;28;20637;-75
2023/01/11 07:53:15;;;;;;;28.00;9.77;;;8.40;99.90;;;;;;5010766;28;20310;-76
2023/01/11 07:55:41;;;;;;;25.23;10.10;;;8.20;99.90;;;;;;5011966;28;20511;-75
2023/01/11 07:58:10;;;;;;;28.30;19.13;;;8.30;99.90;;;;;;5011233;28;20038;-75
2023/01/11 08:00:36;;;;;;;29.63;15.47;;;8.40;99.90;;;;;;5011072;28;20316;-75
2023/01/11 08:03:02;;;;;;;39.07;17.50;;;8.40;99.90;;;;;;5011696;28;20068;-75
2023/01/11 08:05:28;;;;;;;37.03;32.27;;;8.40;99.90;;;;;;5010592;28;20494;-76
2023/01/11 08:07:53;;;;;;;35.13;29.50;;;8.40;99.90;;;;;;4973928;28;21120;-75
2023/01/11 08:10:19;;;;;;;42.87;39.23;;;8.40;99.90;;;;;;4993045;28;20038;-76
2023/01/11 08:15:35;;;;;;;24.90;18.23;;;8.40;99.90;;;;;;5009552;28;20472;-77
2023/01/11 08:18:03;;;;;;;31.93;26.23;;;8.40;99.90;;;;;;5009265;28;20058;-78
2023/01/11 08:20:28;;;;;;;28.47;21.70;;;8.30;99.90;;;;;;5010944;28;20049;-75
2023/01/11 08:22:55;;;;;;;37.40;33.70;;;8.30;99.90;;;;;;5011508;28;20765;-77
2023/01/11 08:25:21;;;;;;;22.50;13.10;;;8.40;99.90;;;;;;5009970;28;20540;-76
2023/01/11 08:27:47;;;;;;;27.63;24.63;;;8.30;99.90;;;;;;4992214;28;20038;-74
2023/01/11 08:30:13;;;;;;;28.17;25.17;;;8.30;99.90;;;;;;5010368;28;20034;-76
2023/01/11 08:32:38;;;;;;;26.80;13.90;;;8.30;99.90;;;;;;5010303;28;20052;-75
2023/01/11 08:35:05;;;;;;;38.57;35.17;;;8.30;99.90;;;;;;4992727;28;20076;-75
2023/01/11 08:37:30;;;;;;;21.20;15.33;;;8.20;99.90;;;;;;5008793;28;20391;-75
2023/01/11 08:39:57;;;;;;;35.03;32.00;;;8.20;99.90;;;;;;5009783;28;20041;-76
2023/01/11 08:42:23;;;;;;;26.00;13.23;;;8.20;99.90;;;;;;5009906;28;20466;-75
2023/01/11 08:44:48;;;;;;;20.83;16.63;;;8.20;99.90;;;;;;4993420;28;20054;-76
2023/01/11 08:47:14;;;;;;;19.57;10.47;;;8.10;99.90;;;;;;5009748;28;20046;-75
2023/01/11 08:49:41;;;;;;;18.97;11.50;;;8.10;99.90;;;;;;4991570;28;20120;-75
2023/01/11 08:52:12;;;;;;;23.27;20.47;;;8.10;99.90;;;;;;5010645;28;20535;-75
2023/01/11 08:54:39;;;;;;;16.43;9.70;;;8.10;99.90;;;;;;5008846;28;20046;-76
2023/01/11 08:57:05;;;;;;;25.90;15.73;;;8.10;99.90;;;;;;5009862;28;20053;-75
2023/01/11 08:59:30;;;;;;;23.77;13.27;;;8.10;99.90;;;;;;5009533;28;20042;-75
2023/01/11 09:01:56;;;;;;;22.67;12.30;;;8.00;99.90;;;;;;5010482;28;20045;-76
2023/01/11 09:04:22;;;;;;;21.13;11.57;;;8.00;99.90;;;;;;4992502;28;20064;-75
2023/01/11 09:06:48;;;;;;;21.57;15.07;;;8.00;99.90;;;;;;5010400;28;20100;-75
2023/01/11 09:09:13;;;;;;;22.67;13.63;;;7.90;99.90;;;;;;4993738;28;20042;-76
2023/01/11 09:11:55;;;;;;;20.57;13.77;;;7.90;99.90;;;;;;5005359;28;20570;-78
2023/01/11 09:14:23;;;;;;;22.87;19.80;;;7.90;99.90;;;;;;5007732;28;20058;-76
2023/01/11 09:16:50;;;;;;;22.73;11.63;;;7.80;99.90;;;;;;4989360;28;20132;-75
2023/01/11 09:19:15;;;;;;;18.67;13.33;;;7.80;99.90;;;;;;5007835;28;20054;-77
2023/01/11 09:21:41;;;;;;;21.30;14.40;;;7.70;99.90;;;;;;5003972;28;20045;-76
2023/01/11 09:24:07;;;;;;;23.03;14.23;;;7.70;99.90;;;;;;4991566;28;20141;-75
2023/01/11 09:26:34;;;;;;;25.30;12.53;;;7.70;99.90;;;;;;5008532;28;20132;-76
2023/01/11 09:29:00;;;;;;;26.70;13.57;;;7.60;99.90;;;;;;5009020;28;20096;-77
2023/01/11 09:31:25;;;;;;;25.10;22.40;;;7.70;99.90;;;;;;5008191;28;20492;-76
2023/01/11 09:33:52;;;;;;;24.23;12.97;;;7.60;99.90;;;;;;5007955;28;20049;-75
2023/01/11 09:36:20;;;;;;;24.90;14.73;;;7.70;99.90;;;;;;5008122;28;20071;-80
2023/01/11 09:38:49;;;;;;;31.53;24.97;;;7.80;99.90;;;;;;5010215;28;20081;-77
2023/01/11 09:41:38;;;;;;;20.47;17.47;;;7.80;99.90;;;;;;4989228;28;20049;-77
2023/01/11 09:44:15;;;;;;;19.93;10.60;;;7.90;99.90;;;;;;5004211;28;20042;-76
2023/01/11 09:46:46;;;;;;;19.43;10.97;;;8.00;99.90;;;;;;5007663;28;20586;-76
2023/01/11 09:49:24;;;;;;;18.87;10.50;;;8.10;99.90;;;;;;5008214;28;20053;-75
2023/01/11 09:51:51;;;;;;;20.40;11.50;;;8.20;99.90;;;;;;5007626;28;20550;-76
2023/01/11 09:54:22;;;;;;;24.03;15.43;;;8.20;99.90;;;;;;5007260;28;20057;-76
2023/01/11 09:57:06;;;;;;;20.60;12.93;;;8.30;99.90;;;;;;5007752;28;20050;-77
2023/01/11 09:59:49;;;;;;;18.83;13.30;;;8.50;99.90;;;;;;4972347;28;20053;-80
2023/01/11 10:02:39;;;;;;;18.57;12.47;;;8.50;99.90;;;;;;5007650;28;20084;-76
2023/01/11 10:05:55;;;;;;;26.57;18.77;;;8.70;99.90;;;;;;4988428;28;20133;-76
2023/01/11 10:08:57;;;;;;;22.13;16.23;;;8.70;99.90;;;;;;4935965;29;20129;-76
2023/01/11 10:11:54;;;;;;;27.80;25.40;;;8.80;99.90;;;;;;4926705;29;20308;-76
2023/01/11 10:14:37;;;;;;;20.97;16.60;;;9.10;99.90;;;;;;4926476;28;20052;-80
2023/01/11 10:17:05;;;;;;;18.90;15.57;;;9.50;99.90;;;;;;4990579;28;20517;-76
2023/01/11 10:19:46;;;;;;;29.77;26.63;;;9.80;99.90;;;;;;5006623;28;20365;-83
2023/01/11 10:22:17;;;;;;;41.08;37.95;;;9.60;99.90;;;;;;5008316;28;20450;-76
2023/01/11 10:24:48;;;;;;;28.55;20.73;;;9.50;99.90;;;;;;4973282;28;20048;-79
2023/01/11 10:27:29;;;;;;;36.45;33.38;;;9.80;99.90;;;;;;5007882;28;20483;-76
2023/01/11 10:30:21;;;;;;;28.60;26.07;;;10.40;99.90;;;;;;5007086;28;20530;-76
2023/01/11 10:33:12;;;;;;;58.93;54.73;;;10.40;99.90;;;;;;5005828;28;20041;-76
2023/01/11 10:35:49;;;;;;;;;;;10.30;99.90;;;;;;4990424;28;20135;-77
2023/01/11 10:38:42;;;;;;;29.43;26.30;;;10.20;99.90;;;;;;5008167;28;19924;-77
2023/01/11 10:41:56;;;;;;;30.80;27.73;;;10.40;99.90;;;;;;4990308;28;20053;-77
2023/01/11 10:44:47;;;;;;;43.17;39.40;;;10.40;99.90;;;;;;5000929;28;20050;-76
2023/01/11 10:47:18;;;;;;;43.85;41.03;;;10.20;99.90;;;;;;5004562;28;20050;-76
2023/01/11 10:49:53;;;;;;;41.03;38.15;;;10.00;99.90;;;;;;5007192;28;20046;-75
2023/01/11 10:52:40;;;;;;;57.60;53.57;;;9.90;99.90;;;;;;5007154;28;20407;-76
2023/01/11 10:55:17;;;;;;;33.07;30.00;;;10.20;99.90;;;;;;5007546;28;20049;-75
2023/01/11 10:58:06;;;;;;;61.63;57.17;;;10.20;99.90;;;;;;5005431;28;20049;-77
2023/01/11 11:00:35;;;;;;;62.67;58.17;;;10.30;99.90;;;;;;5000083;28;20050;-81
2023/01/11 11:03:19;;;;;;;39.13;35.93;;;10.10;99.90;;;;;;5004630;28;20395;-76
2023/01/11 11:05:48;;;;;;;58.57;54.27;;;10.10;99.90;;;;;;5002573;28;20096;-75
2023/01/11 11:08:29;;;;;;;52.23;47.83;;;10.50;99.90;;;;;;5007650;28;20120;-75
2023/01/11 11:11:07;;;;;;;41.65;37.78;;;10.90;99.90;;;;;;5003822;28;20045;-76
2023/01/11 11:14:12;;;;;;;69.80;64.87;;;10.80;99.90;;;;;;4986168;28;20096;-82
2023/01/11 11:17:03;;;;;;;79.50;74.10;;;10.50;99.90;;;;;;4987273;28;20125;-79
2023/01/11 11:19:32;;;;;;;91.53;85.40;;;10.50;99.90;;;;;;5002727;28;20050;-76
2023/01/11 11:21:58;;;;;;;51.43;47.20;;;10.20;99.90;;;;;;5001153;28;20070;-80
2023/01/11 11:24:36;;;;;;;58.03;53.73;;;10.40;99.90;;;;;;5003872;28;20117;-75
2023/01/11 11:27:26;;;;;;;66.23;61.27;;;10.30;99.90;;;;;;5003589;28;20046;-75
2023/01/11 11:29:55;;;;;;;66.50;61.33;;;10.20;99.90;;;;;;4987791;28;20054;-77
2023/01/11 11:32:31;;;;;;;75.83;70.43;;;10.20;99.90;;;;;;5006456;28;20464;-79
2023/01/11 11:34:56;;;;;;;57.07;52.40;;;10.10;99.90;;;;;;5005262;28;20096;-80
2023/01/11 11:37:30;;;;;;;41.57;38.37;;;10.00;99.90;;;;;;5007614;28;20427;-77
2023/01/11 11:39:56;;;;;;;47.50;43.63;;;10.30;99.90;;;;;;4988617;28;20113;-76
2023/01/11 11:42:23;;;;;;;61.97;56.97;;;10.20;99.90;;;;;;4990254;28;20141;-80
2023/01/11 11:45:07;;;;;;;96.37;89.53;;;10.20;99.90;;;;;;5008227;28;20061;-75
2023/01/11 11:47:33;;;;;;;50.03;45.47;;;10.10;99.90;;;;;;5005810;28;20061;-79
2023/01/11 11:50:23;;;;;;;66.43;60.73;;;9.90;99.90;;;;;;5010310;28;20041;-75
2023/01/11 11:53:07;;;;;;;86.57;79.63;;;9.90;99.90;;;;;;5008834;28;20046;-76
2023/01/11 11:55:34;;;;;;;57.80;52.27;;;9.70;99.90;;;;;;5006887;28;20116;-77
2023/01/11 11:58:05;;;;;;;76.40;70.50;;;9.90;99.90;;;;;;5001322;28;20051;-76
2023/01/11 12:00:38;;;;;;;41.47;37.15;;;9.90;99.90;;;;;;5008989;28;20037;-78
2023/01/11 12:03:17;;;;;;;81.30;75.53;;;9.90;99.90;;;;;;5007623;28;20588;-75
2023/01/11 12:05:57;;;;;;;37.57;33.97;;;9.80;99.90;;;;;;4991348;28;20103;-75
2023/01/11 12:08:24;;;;;;;75.70;69.80;;;9.70;99.90;;;;;;5010373;28;20045;-80
2023/01/11 12:10:57;;;;;;;39.40;34.97;;;9.60;99.90;;;;;;5008388;28;20678;-82
2023/01/11 12:13:35;;;;;;;79.50;73.17;;;9.60;99.90;;;;;;5008876;28;20096;-76
2023/01/11 12:16:16;;;;;;;66.43;61.63;;;9.60;99.90;;;;;;5009781;28;20504;-75
2023/01/11 12:18:42;;;;;;;;;;;9.60;99.90;;;;;;5007585;28;20038;-76
2023/01/11 12:21:31;;;;;;;32.33;19.87;;;9.60;99.90;;;;;;5004676;28;19917;-79
2023/01/11 12:24:11;;;;;;;42.90;37.47;;;9.50;99.90;;;;;;5010309;28;20057;-75
2023/01/11 12:27:03;;;;;;;42.13;33.17;;;9.40;99.90;;;;;;5007068;28;20096;-75
2023/01/11 12:30:07;;;;;;;64.30;59.07;;;9.30;99.90;;;;;;5006483;28;20442;-76
2023/01/11 12:32:58;;;;;;;34.07;21.63;;;9.30;99.90;;;;;;4976466;28;20053;-79
2023/01/11 12:35:39;;;;;;;36.38;23.20;;;9.30;99.90;;;;;;5008750;28;20049;-78
2023/01/11 12:38:21;;;;;;;58.78;53.47;;;9.30;99.90;;;;;;4985798;28;20496;-74
2023/01/11 12:40:58;;;;;;;33.90;28.10;;;9.30;99.90;;;;;;5005977;28;20088;-75
2023/01/11 12:43:50;;;;;;;32.97;21.60;;;9.30;99.90;;;;;;5007718;28;20045;-75
2023/01/11 12:46:22;;;;;;;;;;;9.30;99.90;;;;;;5007973;28;20124;-78
2023/01/11 12:48:53;;;;;;;34.03;26.83;;;9.30;99.90;;;;;;5009973;28;19918;-75
2023/01/11 12:51:37;;;;;;;66.30;60.92;;;9.30;99.90;;;;;;5008447;28;20128;-75
2023/01/11 12:54:19;;;;;;;37.53;33.77;;;9.30;99.90;;;;;;5009473;28;20064;-75
2023/01/11 12:57:08;;;;;;;41.53;37.33;;;9.40;99.90;;;;;;5009093;28;20519;-77
2023/01/11 12:59:59;;;;;;;53.33;46.90;;;9.50;99.90;;;;;;4987642;28;20053;-77
2023/01/11 13:03:15;;;;;;;61.72;55.70;;;9.50;99.90;;;;;;5007976;28;20383;-76
2023/01/11 13:06:00;;;;;;;107.13;98.30;;;9.50;99.90;;;;;;4928874;29;20501;-75
2023/01/11 13:08:46;;;;;;;36.37;31.77;;;9.40;99.90;;;;;;4914877;29;20466;-76
2023/01/11 13:11:33;;;;;;;52.27;46.67;;;9.40;99.90;;;;;;4988859;28;20042;-75
2023/01/11 13:14:18;;;;;;;50.17;44.80;;;9.40;99.90;;;;;;5007797;28;20053;-80
2023/01/11 13:17:18;;;;;;;52.10;41.40;;;9.40;99.90;;;;;;5007190;28;20077;-77
2023/01/11 13:19:49;;;;;;;37.57;13.50;;;9.40;99.90;;;;;;4990978;28;20053;-75
2023/01/11 13:22:19;;;;;;;58.15;52.90;;;9.40;99.90;;;;;;5005390;28;20077;-76
2023/01/11 13:24:47;;;;;;;40.57;30.33;;;9.30;99.90;;;;;;4989840;28;20058;-76